sensor_id;sensor_type;location;lat;lon;timestamp;P1;durP1;ratioP1;P2;durP2;ratioP2
8399;SDS011;4237;47.030;15.396;2023-02-15T00:01:19;39.77;;;22.23;;
8399;SDS011;4237;47.030;15.396;2023-02-15T00:03:48;38.93;;;22.13;;
8399;SDS011;4237;47.030;15.396;2023-02-15T00:06:17;37.77;;;22.90;;
8399;SDS011;4237;47.030;15.396;2023-02-15T00:08:46;41.33;;;24.30;;
8399;SDS011;4237;47.030;15.396;2023-02-15T00:11:16;36.53;;;21.93;;
8399;SDS011;4237;47.030;15.396;2023-02-15T00:14:04;39.60;;;22.43;;
8399;SDS011;4237;47.030;15.396;2023-02-15T00:16:35;41.17;;;22.40;;
8399;SDS011;4237;47.030;15.396;2023-02-15T00:19:05;39.20;;;21.57;;
8399;SDS011;4237;47.030;15.396;2023-02-15T00:21:34;40.67;;;22.43;;
8399;SDS011;4237;47.030;15.396;2023-02-15T00:24:05;34.47;;;21.67;;
8399;SDS011;4237;47.030;15.396;2023-02-15T00:26:35;35.77;;;22.93;;
8399;SDS011;4237;47.030;15.396;2023-02-15T00:29:06;37.70;;;22.53;;
8399;SDS011;4237;47.030;15.396;2023-02-15T00:31:36;36.07;;;21.60;;
8399;SDS011;4237;47.030;15.396;2023-02-15T00:34:06;37.60;;;22.17;;
8399;SDS011;4237;47.030;15.396;2023-02-15T00:36:37;35.47;;;22.50;;
8399;SDS011;4237;47.030;15.396;2023-02-15T00:39:06;40.03;;;22.77;;
8399;SDS011;4237;47.030;15.396;2023-02-15T00:41:35;35.70;;;22.07;;
8399;SDS011;4237;47.030;15.396;2023-02-15T00:44:04;37.20;;;22.83;;
8399;SDS011;4237;47.030;15.396;2023-02-15T00:46:34;36.13;;;23.00;;
8399;SDS011;4237;47.030;15.396;2023-02-15T00:49:03;39.87;;;23.60;;
8399;SDS011;4237;47.030;15.396;2023-02-15T00:51:32;38.70;;;22.30;;
8399;SDS011;4237;47.030;15.396;2023-02-15T00:54:00;36.53;;;22.67;;
8399;SDS011;4237;47.030;15.396;2023-02-15T00:56:29;39.37;;;22.13;;
8399;SDS011;4237;47.030;15.396;2023-02-15T00:58:58;38.23;;;23.10;;
8399;SDS011;4237;47.030;15.396;2023-02-15T01:01:26;38.83;;;22.67;;
8399;SDS011;4237;47.030;15.396;2023-02-15T01:03:55;39.57;;;22.60;;
8399;SDS011;4237;47.030;15.396;2023-02-15T01:06:24;38.73;;;24.10;;
8399;SDS011;4237;47.030;15.396;2023-02-15T01:08:52;36.83;;;22.37;;
8399;SDS011;4237;47.030;15.396;2023-02-15T01:11:21;37.80;;;23.90;;
8399;SDS011;4237;47.030;15.396;2023-02-15T01:13:56;39.90;;;23.47;;
8399;SDS011;4237;47.030;15.396;2023-02-15T01:16:22;37.63;;;23.73;;
8399;SDS011;4237;47.030;15.396;2023-02-15T01:18:52;39.70;;;23.83;;
8399;SDS011;4237;47.030;15.396;2023-02-15T01:21:23;39.23;;;23.30;;
8399;SDS011;4237;47.030;15.396;2023-02-15T01:23:53;41.43;;;23.17;;
8399;SDS011;4237;47.030;15.396;2023-02-15T01:26:24;39.67;;;22.63;;
8399;SDS011;4237;47.030;15.396;2023-02-15T01:28:52;40.17;;;24.13;;
8399;SDS011;4237;47.030;15.396;2023-02-15T01:31:20;36.67;;;23.07;;
8399;SDS011;4237;47.030;15.396;2023-02-15T01:33:49;38.53;;;23.03;;
8399;SDS011;4237;47.030;15.396;2023-02-15T01:36:18;39.70;;;24.07;;
8399;SDS011;4237;47.030;15.396;2023-02-15T01:38:46;39.23;;;24.80;;
8399;SDS011;4237;47.030;15.396;2023-02-15T01:41:16;42.37;;;24.20;;
8399;SDS011;4237;47.030;15.396;2023-02-15T01:43:56;41.50;;;23.70;;
8399;SDS011;4237;47.030;15.396;2023-02-15T01:46:50;38.30;;;22.37;;
8399;SDS011;4237;47.030;15.396;2023-02-15T01:49:00;36.73;;;21.53;;
8399;SDS011;4237;47.030;15.396;2023-02-15T01:51:39;39.73;;;22.53;;
8399;SDS011;4237;47.030;15.396;2023-02-15T01:54:29;37.93;;;23.37;;
8399;SDS011;4237;47.030;15.396;2023-02-15T01:57:02;36.97;;;23.37;;
8399;SDS011;4237;47.030;15.396;2023-02-15T01:59:32;36.57;;;23.20;;
8399;SDS011;4237;47.030;15.396;2023-02-15T02:02:03;40.40;;;22.20;;
8399;SDS011;4237;47.030;15.396;2023-02-15T02:04:35;40.27;;;22.77;;
8399;SDS011;4237;47.030;15.396;2023-02-15T02:07:08;39.10;;;22.97;;
8399;SDS011;4237;47.030;15.396;2023-02-15T02:09:40;36.23;;;21.80;;
8399;SDS011;4237;47.030;15.396;2023-02-15T02:12:08;41.27;;;24.23;;
8399;SDS011;4237;47.030;15.396;2023-02-15T02:14:37;37.37;;;23.03;;
8399;SDS011;4237;47.030;15.396;2023-02-15T02:17:22;39.43;;;23.20;;
8399;SDS011;4237;47.030;15.396;2023-02-15T02:28:49;37.37;;;22.20;;
8399;SDS011;4237;47.030;15.396;2023-02-15T02:31:35;35.67;;;23.03;;
8399;SDS011;4237;47.030;15.396;2023-02-15T02:37:19;36.97;;;21.67;;
8399;SDS011;4237;47.030;15.396;2023-02-15T02:40:07;41.00;;;23.83;;
8399;SDS011;4237;47.030;15.396;2023-02-15T02:42:39;34.67;;;22.50;;
8399;SDS011;4237;47.030;15.396;2023-02-15T02:45:12;34.97;;;22.57;;
8399;SDS011;4237;47.030;15.396;2023-02-15T02:47:45;37.60;;;23.17;;
8399;SDS011;4237;47.030;15.396;2023-02-15T02:50:16;40.87;;;24.87;;
8399;SDS011;4237;47.030;15.396;2023-02-15T02:52:47;37.03;;;23.03;;
8399;SDS011;4237;47.030;15.396;2023-02-15T03:00:31;40.13;;;23.67;;
8399;SDS011;4237;47.030;15.396;2023-02-15T03:03:08;42.63;;;24.53;;
8399;SDS011;4237;47.030;15.396;2023-02-15T03:05:34;38.67;;;23.00;;
8399;SDS011;4237;47.030;15.396;2023-02-15T03:08:07;40.87;;;23.60;;
8399;SDS011;4237;47.030;15.396;2023-02-15T03:10:37;41.67;;;24.47;;
8399;SDS011;4237;47.030;15.396;2023-02-15T03:13:08;40.07;;;23.60;;
8399;SDS011;4237;47.030;15.396;2023-02-15T03:15:38;39.47;;;25.47;;
8399;SDS011;4237;47.030;15.396;2023-02-15T03:18:28;42.70;;;24.23;;
8399;SDS011;4237;47.030;15.396;2023-02-15T03:20:58;43.63;;;24.67;;
8399;SDS011;4237;47.030;15.396;2023-02-15T03:23:29;40.53;;;23.23;;
8399;SDS011;4237;47.030;15.396;2023-02-15T03:26:01;38.73;;;22.83;;
8399;SDS011;4237;47.030;15.396;2023-02-15T03:28:38;39.90;;;23.40;;
8399;SDS011;4237;47.030;15.396;2023-02-15T03:31:04;41.00;;;24.07;;
8399;SDS011;4237;47.030;15.396;2023-02-15T03:33:35;42.87;;;23.47;;
8399;SDS011;4237;47.030;15.396;2023-02-15T03:36:08;36.73;;;23.03;;
8399;SDS011;4237;47.030;15.396;2023-02-15T03:38:55;37.90;;;22.47;;
8399;SDS011;4237;47.030;15.396;2023-02-15T03:41:32;39.90;;;23.13;;
8399;SDS011;4237;47.030;15.396;2023-02-15T03:44:04;36.60;;;22.60;;
8399;SDS011;4237;47.030;15.396;2023-02-15T03:46:34;45.67;;;23.10;;
8399;SDS011;4237;47.030;15.396;2023-02-15T03:51:48;39.53;;;22.57;;
8399;SDS011;4237;47.030;15.396;2023-02-15T03:54:23;36.77;;;22.27;;
8399;SDS011;4237;47.030;15.396;2023-02-15T03:57:20;40.53;;;22.23;;
8399;SDS011;4237;47.030;15.396;2023-02-15T04:00:15;34.67;;;21.60;;
8399;SDS011;4237;47.030;15.396;2023-02-15T04:03:09;34.40;;;21.03;;
8399;SDS011;4237;47.030;15.396;2023-02-15T04:05:44;39.70;;;21.77;;
8399;SDS011;4237;47.030;15.396;2023-02-15T04:08:13;33.17;;;21.53;;
8399;SDS011;4237;47.030;15.396;2023-02-15T04:10:41;36.93;;;21.97;;
8399;SDS011;4237;47.030;15.396;2023-02-15T04:13:20;39.23;;;23.30;;
8399;SDS011;4237;47.030;15.396;2023-02-15T04:15:50;34.80;;;21.53;;
8399;SDS011;4237;47.030;15.396;2023-02-15T04:18:30;36.83;;;22.70;;
8399;SDS011;4237;47.030;15.396;2023-02-15T04:21:22;39.37;;;23.23;;
8399;SDS011;4237;47.030;15.396;2023-02-15T04:24:11;36.40;;;23.10;;
8399;SDS011;4237;47.030;15.396;2023-02-15T04:26:59;41.53;;;24.03;;
8399;SDS011;4237;47.030;15.396;2023-02-15T04:29:29;44.57;;;24.40;;
8399;SDS011;4237;47.030;15.396;2023-02-15T04:31:59;39.97;;;22.40;;
8399;SDS011;4237;47.030;15.396;2023-02-15T04:34:29;42.57;;;24.00;;
8399;SDS011;4237;47.030;15.396;2023-02-15T04:36:58;48.50;;;26.23;;
8399;SDS011;4237;47.030;15.396;2023-02-15T04:39:27;42.67;;;24.20;;
8399;SDS011;4237;47.030;15.396;2023-02-15T04:41:55;43.67;;;25.30;;
8399;SDS011;4237;47.030;15.396;2023-02-15T04:44:24;41.80;;;25.17;;
8399;SDS011;4237;47.030;15.396;2023-02-15T04:46:52;38.47;;;23.30;;
8399;SDS011;4237;47.030;15.396;2023-02-15T04:49:21;44.23;;;24.70;;
8399;SDS011;4237;47.030;15.396;2023-02-15T04:51:50;45.90;;;25.80;;
8399;SDS011;4237;47.030;15.396;2023-02-15T04:54:18;44.20;;;24.60;;
8399;SDS011;4237;47.030;15.396;2023-02-15T04:56:47;41.13;;;25.97;;
8399;SDS011;4237;47.030;15.396;2023-02-15T04:59:16;43.97;;;26.07;;
8399;SDS011;4237;47.030;15.396;2023-02-15T05:01:44;44.57;;;26.03;;
8399;SDS011;4237;47.030;15.396;2023-02-15T05:04:13;41.43;;;26.73;;
8399;SDS011;4237;47.030;15.396;2023-02-15T05:06:42;41.40;;;25.57;;
8399;SDS011;4237;47.030;15.396;2023-02-15T05:09:11;42.73;;;25.53;;
8399;SDS011;4237;47.030;15.396;2023-02-15T05:11:39;42.13;;;25.50;;
8399;SDS011;4237;47.030;15.396;2023-02-15T05:14:08;41.83;;;23.20;;
8399;SDS011;4237;47.030;15.396;2023-02-15T05:16:37;44.53;;;24.77;;
8399;SDS011;4237;47.030;15.396;2023-02-15T05:19:06;40.17;;;24.00;;
8399;SDS011;4237;47.030;15.396;2023-02-15T05:21:34;42.67;;;25.33;;
8399;SDS011;4237;47.030;15.396;2023-02-15T05:24:03;42.17;;;24.60;;
8399;SDS011;4237;47.030;15.396;2023-02-15T05:26:34;42.20;;;25.03;;
8399;SDS011;4237;47.030;15.396;2023-02-15T05:29:13;39.97;;;24.40;;
8399;SDS011;4237;47.030;15.396;2023-02-15T05:31:42;39.63;;;24.43;;
8399;SDS011;4237;47.030;15.396;2023-02-15T05:34:12;39.83;;;25.53;;
8399;SDS011;4237;47.030;15.396;2023-02-15T05:36:40;49.53;;;25.50;;
8399;SDS011;4237;47.030;15.396;2023-02-15T05:39:09;39.67;;;25.07;;
8399;SDS011;4237;47.030;15.396;2023-02-15T05:41:38;45.00;;;24.57;;
8399;SDS011;4237;47.030;15.396;2023-02-15T05:44:06;43.57;;;25.43;;
8399;SDS011;4237;47.030;15.396;2023-02-15T05:46:35;42.63;;;25.57;;
8399;SDS011;4237;47.030;15.396;2023-02-15T05:49:03;43.13;;;24.73;;
8399;SDS011;4237;47.030;15.396;2023-02-15T05:51:33;46.83;;;25.87;;
8399;SDS011;4237;47.030;15.396;2023-02-15T05:54:01;40.90;;;24.70;;
8399;SDS011;4237;47.030;15.396;2023-02-15T05:56:30;37.97;;;23.53;;
8399;SDS011;4237;47.030;15.396;2023-02-15T05:58:59;41.43;;;23.73;;
8399;SDS011;4237;47.030;15.396;2023-02-15T06:01:27;46.93;;;26.47;;
8399;SDS011;4237;47.030;15.396;2023-02-15T06:03:56;41.63;;;24.80;;
8399;SDS011;4237;47.030;15.396;2023-02-15T06:06:24;48.13;;;25.13;;
8399;SDS011;4237;47.030;15.396;2023-02-15T06:08:53;40.53;;;23.97;;
8399;SDS011;4237;47.030;15.396;2023-02-15T06:11:22;41.87;;;22.77;;
8399;SDS011;4237;47.030;15.396;2023-02-15T06:13:50;44.43;;;23.43;;
8399;SDS011;4237;47.030;15.396;2023-02-15T06:16:19;45.03;;;23.60;;
8399;SDS011;4237;47.030;15.396;2023-02-15T06:18:47;40.63;;;22.87;;
8399;SDS011;4237;47.030;15.396;2023-02-15T06:21:16;42.17;;;24.30;;
8399;SDS011;4237;47.030;15.396;2023-02-15T06:23:45;44.63;;;24.10;;
8399;SDS011;4237;47.030;15.396;2023-02-15T06:26:13;40.13;;;23.77;;
8399;SDS011;4237;47.030;15.396;2023-02-15T06:28:42;42.63;;;24.50;;
8399;SDS011;4237;47.030;15.396;2023-02-15T06:31:10;42.43;;;26.10;;
8399;SDS011;4237;47.030;15.396;2023-02-15T06:33:39;43.37;;;24.23;;
8399;SDS011;4237;47.030;15.396;2023-02-15T06:36:08;38.10;;;22.83;;
8399;SDS011;4237;47.030;15.396;2023-02-15T06:38:36;38.50;;;22.93;;
8399;SDS011;4237;47.030;15.396;2023-02-15T06:41:05;37.33;;;23.13;;
8399;SDS011;4237;47.030;15.396;2023-02-15T06:43:34;36.77;;;21.73;;
8399;SDS011;4237;47.030;15.396;2023-02-15T06:46:02;37.87;;;20.90;;
8399;SDS011;4237;47.030;15.396;2023-02-15T06:48:31;35.53;;;20.97;;
8399;SDS011;4237;47.030;15.396;2023-02-15T06:51:00;34.47;;;21.03;;
8399;SDS011;4237;47.030;15.396;2023-02-15T06:53:28;35.67;;;21.63;;
8399;SDS011;4237;47.030;15.396;2023-02-15T06:56:01;33.07;;;19.77;;
8399;SDS011;4237;47.030;15.396;2023-02-15T06:58:36;39.37;;;22.00;;
8399;SDS011;4237;47.030;15.396;2023-02-15T07:01:06;36.53;;;21.87;;
8399;SDS011;4237;47.030;15.396;2023-02-15T07:03:36;36.03;;;21.63;;
8399;SDS011;4237;47.030;15.396;2023-02-15T07:06:04;36.30;;;20.93;;
8399;SDS011;4237;47.030;15.396;2023-02-15T07:08:35;31.20;;;19.60;;
8399;SDS011;4237;47.030;15.396;2023-02-15T07:11:05;34.87;;;20.53;;
8399;SDS011;4237;47.030;15.396;2023-02-15T07:13:51;36.80;;;19.97;;
8399;SDS011;4237;47.030;15.396;2023-02-15T07:16:20;29.20;;;18.80;;
8399;SDS011;4237;47.030;15.396;2023-02-15T07:18:49;37.00;;;19.57;;
8399;SDS011;4237;47.030;15.396;2023-02-15T07:21:17;32.67;;;19.50;;
8399;SDS011;4237;47.030;15.396;2023-02-15T07:23:46;40.60;;;24.20;;
8399;SDS011;4237;47.030;15.396;2023-02-15T07:26:14;38.73;;;23.97;;
8399;SDS011;4237;47.030;15.396;2023-02-15T07:28:43;36.57;;;23.10;;
8399;SDS011;4237;47.030;15.396;2023-02-15T07:31:12;38.57;;;23.87;;
8399;SDS011;4237;47.030;15.396;2023-02-15T07:33:40;31.90;;;21.63;;
8399;SDS011;4237;47.030;15.396;2023-02-15T07:36:09;37.67;;;22.57;;
8399;SDS011;4237;47.030;15.396;2023-02-15T07:38:40;44.03;;;23.33;;
8399;SDS011;4237;47.030;15.396;2023-02-15T07:41:11;41.37;;;24.23;;
8399;SDS011;4237;47.030;15.396;2023-02-15T07:43:41;38.47;;;23.83;;
8399;SDS011;4237;47.030;15.396;2023-02-15T07:46:13;37.83;;;24.37;;
8399;SDS011;4237;47.030;15.396;2023-02-15T07:48:43;36.80;;;23.10;;
8399;SDS011;4237;47.030;15.396;2023-02-15T07:51:13;40.20;;;24.13;;
8399;SDS011;4237;47.030;15.396;2023-02-15T07:53:42;41.47;;;24.30;;
8399;SDS011;4237;47.030;15.396;2023-02-15T07:56:12;38.23;;;24.20;;
8399;SDS011;4237;47.030;15.396;2023-02-15T07:58:42;39.40;;;22.43;;
8399;SDS011;4237;47.030;15.396;2023-02-15T08:01:23;38.93;;;23.73;;
8399;SDS011;4237;47.030;15.396;2023-02-15T08:03:59;35.73;;;23.57;;
8399;SDS011;4237;47.030;15.396;2023-02-15T08:06:30;40.87;;;24.10;;
8399;SDS011;4237;47.030;15.396;2023-02-15T08:09:00;39.33;;;24.47;;
8399;SDS011;4237;47.030;15.396;2023-02-15T08:11:31;44.27;;;26.03;;
8399;SDS011;4237;47.030;15.396;2023-02-15T08:16:47;43.90;;;26.90;;
8399;SDS011;4237;47.030;15.396;2023-02-15T08:19:17;47.83;;;28.50;;
8399;SDS011;4237;47.030;15.396;2023-02-15T08:21:49;46.23;;;27.33;;
8399;SDS011;4237;47.030;15.396;2023-02-15T08:24:21;48.53;;;26.90;;
8399;SDS011;4237;47.030;15.396;2023-02-15T08:26:51;44.27;;;26.93;;
8399;SDS011;4237;47.030;15.396;2023-02-15T08:29:21;40.40;;;26.27;;
8399;SDS011;4237;47.030;15.396;2023-02-15T08:31:55;54.83;;;29.37;;
8399;SDS011;4237;47.030;15.396;2023-02-15T08:34:30;44.60;;;27.90;;
8399;SDS011;4237;47.030;15.396;2023-02-15T08:37:01;44.20;;;25.93;;
8399;SDS011;4237;47.030;15.396;2023-02-15T08:39:30;38.67;;;25.00;;
8399;SDS011;4237;47.030;15.396;2023-02-15T08:41:58;40.70;;;26.23;;
8399;SDS011;4237;47.030;15.396;2023-02-15T08:44:27;40.83;;;25.37;;
8399;SDS011;4237;47.030;15.396;2023-02-15T08:46:56;42.90;;;27.07;;
8399;SDS011;4237;47.030;15.396;2023-02-15T08:49:26;43.33;;;26.77;;
8399;SDS011;4237;47.030;15.396;2023-02-15T08:51:55;43.83;;;26.40;;
8399;SDS011;4237;47.030;15.396;2023-02-15T08:54:24;47.07;;;26.93;;
8399;SDS011;4237;47.030;15.396;2023-02-15T08:56:52;44.30;;;25.83;;
8399;SDS011;4237;47.030;15.396;2023-02-15T08:59:22;44.80;;;26.60;;
8399;SDS011;4237;47.030;15.396;2023-02-15T09:01:52;42.50;;;26.00;;
8399;SDS011;4237;47.030;15.396;2023-02-15T09:04:23;42.57;;;26.13;;
8399;SDS011;4237;47.030;15.396;2023-02-15T09:06:52;45.30;;;27.07;;
8399;SDS011;4237;47.030;15.396;2023-02-15T09:09:22;40.83;;;25.90;;
8399;SDS011;4237;47.030;15.396;2023-02-15T09:11:51;44.37;;;26.67;;
8399;SDS011;4237;47.030;15.396;2023-02-15T09:14:20;39.77;;;25.53;;
8399;SDS011;4237;47.030;15.396;2023-02-15T09:16:51;46.20;;;27.43;;
8399;SDS011;4237;47.030;15.396;2023-02-15T09:19:21;45.50;;;27.80;;
8399;SDS011;4237;47.030;15.396;2023-02-15T09:21:51;42.70;;;26.93;;
8399;SDS011;4237;47.030;15.396;2023-02-15T09:24:19;47.70;;;29.47;;
8399;SDS011;4237;47.030;15.396;2023-02-15T09:26:48;45.97;;;28.33;;
8399;SDS011;4237;47.030;15.396;2023-02-15T09:29:17;47.37;;;27.27;;
8399;SDS011;4237;47.030;15.396;2023-02-15T09:31:52;48.97;;;28.93;;
8399;SDS011;4237;47.030;15.396;2023-02-15T09:34:18;50.40;;;29.10;;
8399;SDS011;4237;47.030;15.396;2023-02-15T09:36:49;45.03;;;27.63;;
8399;SDS011;4237;47.030;15.396;2023-02-15T09:39:28;50.60;;;28.10;;
8399;SDS011;4237;47.030;15.396;2023-02-15T09:44:55;48.27;;;27.33;;
8399;SDS011;4237;47.030;15.396;2023-02-15T09:47:55;49.53;;;28.40;;
8399;SDS011;4237;47.030;15.396;2023-02-15T09:50:48;44.30;;;26.33;;
8399;SDS011;4237;47.030;15.396;2023-02-15T09:53:29;37.03;;;24.70;;
8399;SDS011;4237;47.030;15.396;2023-02-15T09:56:14;35.63;;;24.53;;
8399;SDS011;4237;47.030;15.396;2023-02-15T09:58:57;39.70;;;26.00;;
8399;SDS011;4237;47.030;15.396;2023-02-15T10:12:51;42.70;;;27.00;;
8399;SDS011;4237;47.030;15.396;2023-02-15T10:15:52;42.13;;;28.57;;
8399;SDS011;4237;47.030;15.396;2023-02-15T10:21:22;41.87;;;26.70;;
8399;SDS011;4237;47.030;15.396;2023-02-15T10:26:46;42.77;;;27.20;;
8399;SDS011;4237;47.030;15.396;2023-02-15T10:31:48;43.10;;;27.53;;
8399;SDS011;4237;47.030;15.396;2023-02-15T10:34:43;47.57;;;27.13;;
8399;SDS011;4237;47.030;15.396;2023-02-15T10:37:13;46.20;;;27.23;;
8399;SDS011;4237;47.030;15.396;2023-02-15T10:39:53;44.23;;;25.77;;
8399;SDS011;4237;47.030;15.396;2023-02-15T10:45:39;46.47;;;26.93;;
8399;SDS011;4237;47.030;15.396;2023-02-15T10:51:10;46.83;;;25.93;;
8399;SDS011;4237;47.030;15.396;2023-02-15T11:04:41;50.70;;;28.20;;
8399;SDS011;4237;47.030;15.396;2023-02-15T11:12:53;45.80;;;28.20;;
8399;SDS011;4237;47.030;15.396;2023-02-15T11:15:26;46.60;;;28.00;;
8399;SDS011;4237;47.030;15.396;2023-02-15T11:23:29;51.10;;;28.67;;
8399;SDS011;4237;47.030;15.396;2023-02-15T11:26:02;45.77;;;27.70;;
8399;SDS011;4237;47.030;15.396;2023-02-15T11:31:15;47.07;;;27.97;;
8399;SDS011;4237;47.030;15.396;2023-02-15T11:33:51;46.37;;;26.23;;
8399;SDS011;4237;47.030;15.396;2023-02-15T11:36:25;43.70;;;27.60;;
8399;SDS011;4237;47.030;15.396;2023-02-15T11:39:04;43.63;;;27.37;;
8399;SDS011;4237;47.030;15.396;2023-02-15T11:41:34;47.93;;;28.47;;
8399;SDS011;4237;47.030;15.396;2023-02-15T11:46:50;42.60;;;26.97;;
8399;SDS011;4237;47.030;15.396;2023-02-15T11:49:21;41.40;;;27.03;;
8399;SDS011;4237;47.030;15.396;2023-02-15T11:52:04;44.40;;;27.73;;
8399;SDS011;4237;47.030;15.396;2023-02-15T11:54:37;49.70;;;29.33;;
8399;SDS011;4237;47.030;15.396;2023-02-15T11:57:25;44.80;;;26.13;;
8399;SDS011;4237;47.030;15.396;2023-02-15T11:59:56;46.80;;;26.90;;
8399;SDS011;4237;47.030;15.396;2023-02-15T12:02:33;47.97;;;27.27;;
8399;SDS011;4237;47.030;15.396;2023-02-15T12:05:09;43.67;;;29.47;;
8399;SDS011;4237;47.030;15.396;2023-02-15T12:08:00;44.07;;;27.63;;
8399;SDS011;4237;47.030;15.396;2023-02-15T12:10:38;48.53;;;27.70;;
8399;SDS011;4237;47.030;15.396;2023-02-15T12:13:14;47.03;;;29.63;;
8399;SDS011;4237;47.030;15.396;2023-02-15T12:15:46;44.97;;;29.30;;
8399;SDS011;4237;47.030;15.396;2023-02-15T12:18:36;46.77;;;29.00;;
8399;SDS011;4237;47.030;15.396;2023-02-15T12:21:07;41.93;;;28.13;;
8399;SDS011;4237;47.030;15.396;2023-02-15T12:23:52;48.57;;;29.80;;
8399;SDS011;4237;47.030;15.396;2023-02-15T12:26:27;41.87;;;28.13;;
8399;SDS011;4237;47.030;15.396;2023-02-15T12:28:58;46.17;;;29.80;;
8399;SDS011;4237;47.030;15.396;2023-02-15T12:31:39;45.73;;;29.23;;
8399;SDS011;4237;47.030;15.396;2023-02-15T12:34:12;44.37;;;30.03;;
8399;SDS011;4237;47.030;15.396;2023-02-15T12:36:59;41.53;;;30.07;;
8399;SDS011;4237;47.030;15.396;2023-02-15T12:39:32;41.00;;;30.60;;
8399;SDS011;4237;47.030;15.396;2023-02-15T12:42:03;52.40;;;30.47;;
8399;SDS011;4237;47.030;15.396;2023-02-15T12:44:34;39.40;;;29.73;;
8399;SDS011;4237;47.030;15.396;2023-02-15T12:49:38;41.43;;;30.03;;
8399;SDS011;4237;47.030;15.396;2023-02-15T12:54:48;45.53;;;30.43;;
8399;SDS011;4237;47.030;15.396;2023-02-15T12:57:25;45.00;;;29.67;;
8399;SDS011;4237;47.030;15.396;2023-02-15T12:59:59;44.47;;;31.77;;
8399;SDS011;4237;47.030;15.396;2023-02-15T13:02:47;42.43;;;29.57;;
8399;SDS011;4237;47.030;15.396;2023-02-15T13:08:00;44.30;;;30.10;;
8399;SDS011;4237;47.030;15.396;2023-02-15T13:11:19;46.03;;;29.47;;
8399;SDS011;4237;47.030;15.396;2023-02-15T13:13:09;48.57;;;30.77;;
8399;SDS011;4237;47.030;15.396;2023-02-15T13:15:48;44.87;;;29.63;;
8399;SDS011;4237;47.030;15.396;2023-02-15T13:18:30;45.77;;;28.93;;
8399;SDS011;4237;47.030;15.396;2023-02-15T13:21:22;44.53;;;29.93;;
8399;SDS011;4237;47.030;15.396;2023-02-15T13:23:42;42.90;;;29.73;;
8399;SDS011;4237;47.030;15.396;2023-02-15T13:26:14;50.17;;;30.33;;
8399;SDS011;4237;47.030;15.396;2023-02-15T13:28:49;46.23;;;28.87;;
8399;SDS011;4237;47.030;15.396;2023-02-15T13:31:15;44.97;;;30.10;;
8399;SDS011;4237;47.030;15.396;2023-02-15T13:33:53;46.80;;;28.87;;
8399;SDS011;4237;47.030;15.396;2023-02-15T13:39:11;43.17;;;29.30;;
8399;SDS011;4237;47.030;15.396;2023-02-15T13:44:47;52.03;;;29.30;;
8399;SDS011;4237;47.030;15.396;2023-02-15T13:47:27;43.00;;;28.10;;
8399;SDS011;4237;47.030;15.396;2023-02-15T13:50:04;48.47;;;30.13;;
8399;SDS011;4237;47.030;15.396;2023-02-15T13:59:22;47.33;;;29.10;;
8399;SDS011;4237;47.030;15.396;2023-02-15T14:06:39;48.63;;;28.93;;
8399;SDS011;4237;47.030;15.396;2023-02-15T14:09:14;47.63;;;28.33;;
8399;SDS011;4237;47.030;15.396;2023-02-15T14:26:01;47.00;;;29.37;;
8399;SDS011;4237;47.030;15.396;2023-02-15T14:28:37;43.60;;;28.93;;
8399;SDS011;4237;47.030;15.396;2023-02-15T14:31:12;46.80;;;27.80;;
8399;SDS011;4237;47.030;15.396;2023-02-15T14:33:55;47.20;;;28.03;;
8399;SDS011;4237;47.030;15.396;2023-02-15T14:36:24;43.70;;;28.33;;
8399;SDS011;4237;47.030;15.396;2023-02-15T14:41:38;47.00;;;28.17;;
8399;SDS011;4237;47.030;15.396;2023-02-15T14:44:59;48.30;;;28.67;;
8399;SDS011;4237;47.030;15.396;2023-02-15T14:46:58;48.07;;;29.17;;
8399;SDS011;4237;47.030;15.396;2023-02-15T14:49:40;46.77;;;29.63;;
8399;SDS011;4237;47.030;15.396;2023-02-15T14:52:10;45.60;;;29.00;;
8399;SDS011;4237;47.030;15.396;2023-02-15T15:07:56;49.23;;;27.97;;
8399;SDS011;4237;47.030;15.396;2023-02-15T15:10:43;46.60;;;28.97;;
8399;SDS011;4237;47.030;15.396;2023-02-15T15:18:53;51.03;;;29.60;;
8399;SDS011;4237;47.030;15.396;2023-02-15T15:24:45;54.80;;;28.43;;
8399;SDS011;4237;47.030;15.396;2023-02-15T15:40:59;47.93;;;27.37;;
8399;SDS011;4237;47.030;15.396;2023-02-15T15:46:59;47.20;;;27.07;;
8399;SDS011;4237;47.030;15.396;2023-02-15T15:49:02;55.57;;;27.40;;
8399;SDS011;4237;47.030;15.396;2023-02-15T15:51:33;46.23;;;26.00;;
8399;SDS011;4237;47.030;15.396;2023-02-15T15:54:03;51.73;;;27.27;;
8399;SDS011;4237;47.030;15.396;2023-02-15T15:56:33;54.23;;;30.53;;
8399;SDS011;4237;47.030;15.396;2023-02-15T15:59:07;61.03;;;33.03;;
8399;SDS011;4237;47.030;15.396;2023-02-15T16:01:39;60.33;;;33.70;;
8399;SDS011;4237;47.030;15.396;2023-02-15T16:04:14;55.30;;;30.90;;
8399;SDS011;4237;47.030;15.396;2023-02-15T16:09:59;55.87;;;31.60;;
8399;SDS011;4237;47.030;15.396;2023-02-15T16:12:32;61.00;;;31.03;;
8399;SDS011;4237;47.030;15.396;2023-02-15T16:15:23;60.07;;;30.87;;
8399;SDS011;4237;47.030;15.396;2023-02-15T16:17:45;60.87;;;29.30;;
8399;SDS011;4237;47.030;15.396;2023-02-15T16:20:17;55.67;;;26.70;;
8399;SDS011;4237;47.030;15.396;2023-02-15T16:22:50;54.90;;;29.23;;
8399;SDS011;4237;47.030;15.396;2023-02-15T16:28:11;53.90;;;28.00;;
8399;SDS011;4237;47.030;15.396;2023-02-15T16:30:35;59.10;;;29.00;;
8399;SDS011;4237;47.030;15.396;2023-02-15T16:33:07;58.30;;;29.00;;
8399;SDS011;4237;47.030;15.396;2023-02-15T16:35:52;54.90;;;28.83;;
8399;SDS011;4237;47.030;15.396;2023-02-15T16:41:15;58.80;;;30.07;;
8399;SDS011;4237;47.030;15.396;2023-02-15T16:43:46;56.10;;;28.43;;
8399;SDS011;4237;47.030;15.396;2023-02-15T16:46:18;59.30;;;30.60;;
8399;SDS011;4237;47.030;15.396;2023-02-15T16:48:51;59.43;;;28.43;;
8399;SDS011;4237;47.030;15.396;2023-02-15T16:51:28;56.53;;;29.00;;
8399;SDS011;4237;47.030;15.396;2023-02-15T16:53:55;64.20;;;30.20;;
8399;SDS011;4237;47.030;15.396;2023-02-15T16:56:27;66.07;;;32.40;;
8399;SDS011;4237;47.030;15.396;2023-02-15T16:59:00;63.47;;;32.90;;
8399;SDS011;4237;47.030;15.396;2023-02-15T17:01:30;71.57;;;33.07;;
8399;SDS011;4237;47.030;15.396;2023-02-15T17:09:33;79.67;;;34.20;;
8399;SDS011;4237;47.030;15.396;2023-02-15T17:12:02;69.47;;;33.30;;
8399;SDS011;4237;47.030;15.396;2023-02-15T17:14:32;63.53;;;33.47;;
8399;SDS011;4237;47.030;15.396;2023-02-15T17:17:06;64.27;;;31.47;;
8399;SDS011;4237;47.030;15.396;2023-02-15T17:19:44;70.97;;;32.50;;
8399;SDS011;4237;47.030;15.396;2023-02-15T17:22:23;68.00;;;31.50;;
8399;SDS011;4237;47.030;15.396;2023-02-15T17:24:58;66.37;;;33.00;;
8399;SDS011;4237;47.030;15.396;2023-02-15T17:27:30;79.97;;;37.70;;
8399;SDS011;4237;47.030;15.396;2023-02-15T17:30:45;74.03;;;35.77;;
8399;SDS011;4237;47.030;15.396;2023-02-15T17:32:52;77.17;;;35.63;;
8399;SDS011;4237;47.030;15.396;2023-02-15T17:35:22;75.27;;;35.67;;
8399;SDS011;4237;47.030;15.396;2023-02-15T17:38:03;78.37;;;35.07;;
8399;SDS011;4237;47.030;15.396;2023-02-15T17:40:37;72.47;;;34.63;;
8399;SDS011;4237;47.030;15.396;2023-02-15T17:43:06;74.40;;;34.20;;
8399;SDS011;4237;47.030;15.396;2023-02-15T17:45:42;75.00;;;33.30;;
8399;SDS011;4237;47.030;15.396;2023-02-15T17:48:15;73.17;;;34.60;;
8399;SDS011;4237;47.030;15.396;2023-02-15T17:50:54;65.83;;;32.97;;
8399;SDS011;4237;47.030;15.396;2023-02-15T17:53:24;69.57;;;33.97;;
8399;SDS011;4237;47.030;15.396;2023-02-15T17:55:53;63.43;;;32.30;;
8399;SDS011;4237;47.030;15.396;2023-02-15T17:58:22;67.00;;;32.37;;
8399;SDS011;4237;47.030;15.396;2023-02-15T18:00:54;70.87;;;31.70;;